Time;durP1;ratioP1;P1;durP2;ratioP2;P2;SDS_P1;SDS_P2;PMS_P1;PMS_P2;Temp;Humidity;BMP_temperature;BMP_pressure;BME280_temperature;BME280_humidity;BME280_pressure;Samples;Min_cycle;Max_cycle;Signal;HPM_P1;HPM_P2
2023/04/02 00:01:25;;;;;;;12.27;2.88;;;3.90;99.90;;;;;;5019080;28;20052;-74
2023/04/02 00:03:58;;;;;;;10.77;3.03;;;3.90;99.90;;;;;;5062995;28;20041;-75
2023/04/02 00:06:43;;;;;;;8.90;2.60;;;3.90;99.90;;;;;;5039374;28;20055;-75
2023/04/02 00:09:12;;;;;;;10.48;3.03;;;3.90;99.90;;;;;;5038830;28;21014;-74
2023/04/02 00:11:44;;;;;;;10.23;3.20;;;3.80;99.90;;;;;;5043676;28;20041;-75
2023/04/02 00:14:35;;;;;;;9.57;3.45;;;3.80;99.90;;;;;;5060955;28;20129;-74
2023/04/02 00:17:04;;;;;;;12.23;2.65;;;4.00;99.90;;;;;;5022863;28;20052;-74
2023/04/02 00:19:39;;;;;;;9.35;3.10;;;3.80;99.90;;;;;;5019145;28;20099;-74
2023/04/02 00:22:10;;;;;;;9.38;2.67;;;3.70;99.90;;;;;;5046300;28;20073;-75
2023/04/02 00:24:37;;;;;;;;;;;3.70;99.90;;;;;;5038654;28;20044;-74
2023/04/02 00:27:09;;;;;;;6.80;2.50;;;3.70;99.90;;;;;;5037894;28;19925;-75
2023/04/02 00:29:35;;;;;;;10.57;2.67;;;3.60;99.90;;;;;;5044796;28;20871;-74
2023/04/02 00:32:01;;;;;;;7.22;2.33;;;3.50;99.90;;;;;;5028339;28;20093;-74
2023/04/02 00:34:32;;;;;;;9.48;2.70;;;3.50;99.90;;;;;;5028016;28;20114;-74
2023/04/02 00:36:58;;;;;;;9.82;3.05;;;3.40;99.90;;;;;;5043131;28;20045;-80
2023/04/02 00:39:44;;;;;;;16.20;2.97;;;3.30;99.90;;;;;;5046996;28;20464;-80
2023/04/02 00:42:11;;;;;;;11.38;2.85;;;3.30;99.90;;;;;;5047499;28;20076;-80
2023/04/02 00:44:43;;;;;;;10.50;2.83;;;3.30;99.90;;;;;;5049130;28;20604;-81
2023/04/02 00:47:23;;;;;;;12.43;2.85;;;3.20;99.90;;;;;;5048545;28;20041;-80
2023/04/02 00:50:07;;;;;;;7.68;2.72;;;3.20;99.90;;;;;;5050537;28;20045;-80
2023/04/02 00:52:35;;;;;;;10.43;3.30;;;3.20;99.90;;;;;;5042289;28;20045;-80
2023/04/02 00:55:12;;;;;;;6.93;2.65;;;3.20;99.90;;;;;;5038878;28;20048;-81
2023/04/02 00:57:41;;;;;;;11.52;2.75;;;3.10;99.90;;;;;;5025404;28;20128;-81
2023/04/02 01:00:22;;;;;;;10.95;3.22;;;3.10;99.90;;;;;;5048906;28;20606;-81
2023/04/02 01:03:16;;;;;;;9.23;3.03;;;3.00;99.90;;;;;;5035683;28;20054;-81
2023/04/02 01:05:50;;;;;;;9.90;2.95;;;3.00;99.90;;;;;;5026345;28;20106;-79
2023/04/02 01:08:22;;;;;;;9.07;2.50;;;2.90;99.90;;;;;;5017911;28;20160;-80
2023/04/02 01:11:02;;;;;;;9.73;3.17;;;2.90;99.90;;;;;;5038924;28;20123;-80
2023/04/02 01:13:31;;;;;;;9.75;2.90;;;2.90;99.90;;;;;;5052587;28;20051;-80
2023/04/02 01:16:24;;;;;;;8.48;2.83;;;2.80;99.90;;;;;;5033284;28;20037;-80
2023/04/02 01:19:05;;;;;;;9.20;2.47;;;2.80;99.90;;;;;;5025777;28;20745;-81
2023/04/02 01:21:41;;;;;;;8.30;3.30;;;2.80;99.90;;;;;;5053998;28;20102;-79
2023/04/02 01:24:12;;;;;;;7.78;2.50;;;2.70;99.90;;;;;;5038975;28;20049;-79
2023/04/02 01:27:03;;;;;;;6.57;2.38;;;2.70;99.90;;;;;;5042505;28;20056;-80
2023/04/02 01:29:36;;;;;;;10.23;2.28;;;2.70;99.90;;;;;;5026238;28;20502;-80
2023/04/02 01:32:06;;;;;;;12.57;2.42;;;2.70;99.90;;;;;;5026967;28;20120;-80
2023/04/02 01:34:33;;;;;;;7.22;2.15;;;3.20;99.90;;;;;;5049569;28;20032;-81
2023/04/02 01:37:13;;;;;;;8.65;2.20;;;2.60;99.90;;;;;;5056677;28;20508;-81
2023/04/02 01:40:00;;;;;;;8.32;2.38;;;3.40;99.90;;;;;;5044092;28;20057;-80
2023/04/02 01:43:07;;;;;;;8.27;2.38;;;2.60;99.90;;;;;;5047027;28;20045;-81
2023/04/02 01:45:33;;;;;;;9.18;2.95;;;2.50;99.90;;;;;;5006816;28;20064;-82
2023/04/02 01:48:26;;;;;;;7.95;2.42;;;2.50;99.90;;;;;;5049993;28;20041;-80
2023/04/02 01:50:54;;;;;;;9.20;2.58;;;2.50;99.90;;;;;;5037527;28;20102;-81
2023/04/02 01:53:23;;;;;;;7.88;2.50;;;3.10;99.90;;;;;;5039976;28;20806;-80
2023/04/02 01:55:52;;;;;;;7.80;2.40;;;2.40;99.90;;;;;;5042982;28;20083;-80
2023/04/02 01:58:24;;;;;;;6.28;2.47;;;2.40;99.90;;;;;;5055030;28;20045;-81
2023/04/02 02:00:58;;;;;;;4.80;2.00;;;3.00;99.90;;;;;;5053748;28;20036;-81
2023/04/02 02:03:24;;;;;;;7.78;2.30;;;2.40;99.90;;;;;;5041429;28;20098;-81
2023/04/02 02:05:50;;;;;;;5.65;2.10;;;2.30;99.90;;;;;;5028928;28;20078;-81
2023/04/02 02:08:45;;;;;;;10.15;3.25;;;1.40;99.90;;;;;;5041551;28;20103;-81
2023/04/02 02:11:15;;;;;;;7.00;1.88;;;2.20;99.90;;;;;;5020065;28;20954;-80
2023/04/02 02:13:57;;;;;;;10.93;2.25;;;2.20;99.90;;;;;;5052376;28;20041;-81
2023/04/02 02:16:23;;;;;;;8.70;2.00;;;2.20;99.90;;;;;;5042174;28;20067;-80
2023/04/02 02:18:55;;;;;;;7.00;1.88;;;2.10;99.90;;;;;;5057376;28;20139;-80
2023/04/02 02:21:32;;;;;;;;;;;2.60;99.90;;;;;;5055933;28;20028;-79
2023/04/02 02:24:00;;;;;;;10.20;1.95;;;2.10;99.90;;;;;;5048790;28;19924;-81
2023/04/02 02:26:28;;;;;;;6.28;1.77;;;2.10;99.90;;;;;;5042574;28;20051;-81
2023/04/02 02:28:56;;;;;;;8.02;2.45;;;2.10;99.90;;;;;;5045193;28;20579;-81
2023/04/02 02:31:31;;;;;;;10.65;2.10;;;2.10;99.90;;;;;;5035024;28;20112;-80
2023/04/02 02:34:03;;;;;;;5.30;2.00;;;2.00;99.90;;;;;;5024605;28;20048;-79
2023/04/02 02:36:53;;;;;;;7.65;2.08;;;2.00;99.90;;;;;;5043896;28;20048;-79
2023/04/02 02:39:39;;;;;;;8.30;1.80;;;1.90;99.90;;;;;;5049526;28;20068;-80
2023/04/02 02:42:17;;;;;;;7.75;1.60;;;2.00;99.90;;;;;;5041236;28;20040;-80
2023/04/02 02:44:47;;;;;;;4.85;1.70;;;1.90;99.90;;;;;;5028399;28;20055;-80
2023/04/02 02:47:22;;;;;;;7.40;1.95;;;2.90;99.90;;;;;;5036721;28;20052;-80
2023/04/02 02:49:57;;;;;;;5.38;1.98;;;1.90;99.90;;;;;;5042405;28;20694;-80
2023/04/02 02:52:37;;;;;;;6.75;1.83;;;1.90;99.90;;;;;;5027995;28;20519;-81
2023/04/02 02:55:11;;;;;;;10.32;1.83;;;1.80;99.90;;;;;;5027253;28;20044;-81
2023/04/02 02:57:46;;;;;;;5.97;1.50;;;1.80;99.90;;;;;;5051672;28;21013;-81
2023/04/02 03:00:14;;;;;;;6.55;1.60;;;1.80;99.90;;;;;;5046835;28;20088;-80
2023/04/02 03:02:42;;;;;;;11.82;2.05;;;1.70;99.90;;;;;;5036410;28;20457;-81
2023/04/02 03:05:08;;;;;;;5.30;1.55;;;1.70;99.90;;;;;;5028903;28;20377;-81
2023/04/02 03:07:36;;;;;;;9.00;1.67;;;2.00;99.90;;;;;;5044249;28;20059;-80
2023/04/02 03:10:22;;;;;;;6.80;2.10;;;1.70;99.90;;;;;;5045765;28;20052;-81
2023/04/02 03:12:56;;;;;;;9.40;1.55;;;1.70;99.90;;;;;;5037172;28;20052;-81
2023/04/02 03:15:48;;;;;;;8.85;1.88;;;1.60;99.90;;;;;;5034170;28;20063;-80
2023/04/02 03:18:43;;;;;;;10.52;1.80;;;1.60;99.90;;;;;;5039465;28;20060;-81
2023/04/02 03:21:20;;;;;;;10.95;3.28;;;1.60;99.90;;;;;;5041665;28;20402;-80
2023/04/02 03:23:59;;;;;;;6.78;1.83;;;1.60;99.90;;;;;;5034907;28;20391;-80
2023/04/02 03:26:51;;;;;;;4.65;1.42;;;1.60;99.90;;;;;;5043075;28;20067;-80
2023/04/02 03:29:29;;;;;;;13.00;2.45;;;1.60;99.90;;;;;;5037130;28;20401;-81
2023/04/02 03:32:02;;;;;;;5.13;1.50;;;1.80;99.90;;;;;;5058130;28;20052;-80
2023/04/02 03:34:37;;;;;;;7.60;1.58;;;1.50;99.90;;;;;;5024265;28;20066;-82
2023/04/02 03:37:19;;;;;;;4.95;1.40;;;1.50;99.90;;;;;;5041928;28;20052;-81
2023/04/02 03:39:59;;;;;;;8.80;1.70;;;1.50;99.90;;;;;;5043055;28;20102;-80
2023/04/02 03:42:29;;;;;;;6.90;1.58;;;1.50;99.90;;;;;;5043429;28;20067;-79
2023/04/02 03:45:09;;;;;;;9.23;1.55;;;1.50;99.90;;;;;;5042433;28;20075;-80
2023/04/02 03:47:50;;;;;;;7.57;1.63;;;1.40;99.90;;;;;;5040962;28;20056;-81
2023/04/02 03:50:31;;;;;;;10.57;1.83;;;1.40;99.90;;;;;;5043881;28;20071;-79
2023/04/02 03:52:59;;;;;;;6.38;1.52;;;1.40;99.90;;;;;;5028725;28;20047;-80
2023/04/02 03:55:28;;;;;;;8.05;1.92;;;1.40;99.90;;;;;;5053907;28;20504;-79
2023/04/02 03:57:59;;;;;;;8.85;1.40;;;1.40;99.90;;;;;;5044221;28;20375;-79
2023/04/02 04:01:03;;;;;;;7.40;1.52;;;1.40;99.90;;;;;;5045622;28;20711;-80
2023/04/02 04:03:31;;;;;;;7.88;1.55;;;1.40;99.90;;;;;;5054254;28;20137;-80
2023/04/02 04:06:04;;;;;;;6.18;1.40;;;1.40;99.90;;;;;;5057505;28;20487;-81
2023/04/02 04:08:41;;;;;;;9.10;1.70;;;1.30;99.90;;;;;;5050429;28;20103;-80
2023/04/02 04:11:15;;;;;;;6.78;1.55;;;1.30;99.90;;;;;;5039767;28;20509;-81
2023/04/02 04:14:18;;;;;;;6.10;1.70;;;1.30;99.90;;;;;;5039172;28;20560;-80
2023/04/02 04:16:54;;;;;;;7.70;1.60;;;1.30;99.90;;;;;;5023600;28;20080;-81
2023/04/02 04:19:47;;;;;;;11.77;1.67;;;1.30;99.90;;;;;;5061177;28;20037;-80
2023/04/02 04:22:31;;;;;;;8.98;1.65;;;1.30;99.90;;;;;;5045652;28;20047;-81
2023/04/02 04:25:07;;;;;;;7.13;2.40;;;1.30;99.90;;;;;;5029533;28;20029;-81
2023/04/02 04:27:51;;;;;;;6.10;1.70;;;1.40;99.90;;;;;;5026609;28;20162;-81
2023/04/02 04:30:23;;;;;;;7.75;1.67;;;1.30;99.90;;;;;;5042581;28;20261;-80
2023/04/02 04:32:57;;;;;;;8.23;1.58;;;1.30;99.90;;;;;;5055451;28;20040;-82
2023/04/02 04:35:32;;;;;;;6.30;1.70;;;2.40;99.90;;;;;;5041444;28;20066;-80
2023/04/02 04:38:15;;;;;;;6.93;1.50;;;2.20;99.90;;;;;;5024718;28;20059;-80
2023/04/02 04:40:51;;;;;;;7.43;1.55;;;1.30;99.90;;;;;;5040700;28;20136;-80
2023/04/02 04:43:26;;;;;;;6.18;1.58;;;1.50;99.90;;;;;;5022927;28;20448;-81
2023/04/02 04:46:08;;;;;;;9.18;1.88;;;1.30;99.90;;;;;;5048013;28;20120;-79
2023/04/02 04:48:37;;;;;;;7.53;1.60;;;1.90;99.90;;;;;;5039451;28;20071;-79
2023/04/02 04:51:09;;;;;;;12.52;1.88;;;1.30;99.90;;;;;;5045190;28;20052;-79
2023/04/02 04:53:44;;;;;;;;;;;1.50;99.90;;;;;;5046220;28;20044;-79
2023/04/02 04:56:10;;;;;;;13.23;2.65;;;1.20;99.90;;;;;;5038051;28;19982;-80
2023/04/02 04:59:10;;;;;;;10.15;1.60;;;1.40;99.90;;;;;;5046490;28;20127;-81
2023/04/02 05:01:44;;;;;;;10.20;1.70;;;1.30;99.90;;;;;;5050491;28;20621;-79
2023/04/02 05:04:18;;;;;;;7.80;2.53;;;1.30;99.90;;;;;;5057766;28;20041;-78
2023/04/02 05:07:16;;;;;;;11.35;1.75;;;1.20;99.90;;;;;;5027458;28;20045;-80
2023/04/02 05:09:56;;;;;;;5.90;1.42;;;2.30;99.90;;;;;;5038292;28;20044;-80
2023/04/02 05:12:34;;;;;;;6.88;1.33;;;1.20;99.90;;;;;;5021320;28;20043;-80
2023/04/02 05:15:29;;;;;;;9.00;1.63;;;1.20;99.90;;;;;;5040070;28;20044;-80
2023/04/02 05:18:19;;;;;;;5.47;1.33;;;1.20;99.90;;;;;;5053155;28;20044;-79
2023/04/02 05:20:53;;;;;;;7.78;1.23;;;1.20;99.90;;;;;;5044577;28;20055;-79
2023/04/02 05:23:29;;;;;;;5.80;1.42;;;1.20;99.90;;;;;;5053166;28;20128;-79
2023/04/02 05:26:15;;;;;;;9.45;1.70;;;1.20;99.90;;;;;;5053498;28;20040;-80
2023/04/02 05:28:47;;;;;;;6.03;2.00;;;1.20;99.90;;;;;;5027920;28;20606;-81
2023/04/02 05:31:24;;;;;;;8.55;1.63;;;1.20;99.90;;;;;;5049391;28;20049;-80
2023/04/02 05:33:52;;;;;;;8.80;1.85;;;1.20;99.90;;;;;;5040934;28;20431;-80
2023/04/02 05:36:28;;;;;;;9.25;1.55;;;1.30;99.90;;;;;;5023411;28;20071;-80
2023/04/02 05:38:55;;;;;;;8.77;1.75;;;1.20;99.90;;;;;;5038348;28;20123;-80
2023/04/02 05:41:37;;;;;;;7.00;1.58;;;1.20;99.90;;;;;;5040120;28;20041;-79
2023/04/02 05:44:08;;;;;;;7.50;1.80;;;1.30;99.90;;;;;;5023016;28;20043;-80
2023/04/02 05:46:45;;;;;;;8.15;1.48;;;1.80;99.90;;;;;;5041977;28;20520;-81
2023/04/02 05:49:22;;;;;;;9.15;1.45;;;1.30;99.90;;;;;;5041249;28;20394;-79
2023/04/02 05:51:50;;;;;;;8.77;1.60;;;1.40;99.90;;;;;;5042523;28;20366;-80
2023/04/02 05:54:33;;;;;;;6.13;1.40;;;2.20;99.90;;;;;;5037548;28;20044;-80
2023/04/02 05:57:08;;;;;;;5.47;1.38;;;1.80;99.90;;;;;;5041891;28;20059;-79
2023/04/02 05:59:39;;;;;;;10.00;1.80;;;2.00;99.90;;;;;;5051509;28;20543;-80
2023/04/02 06:02:23;;;;;;;;;;;2.30;99.90;;;;;;5050017;28;20060;-80
2023/04/02 06:05:00;;;;;;;6.80;1.40;;;2.60;99.90;;;;;;5045406;28;19936;-81
2023/04/02 06:07:54;;;;;;;6.05;1.25;;;2.90;99.90;;;;;;5012995;28;20429;-80
2023/04/02 06:10:22;;;;;;;6.70;1.55;;;2.60;99.90;;;;;;5044905;28;20091;-80
2023/04/02 06:12:54;;;;;;;7.38;1.60;;;2.70;99.90;;;;;;5044239;28;20041;-79
2023/04/02 06:15:22;;;;;;;7.55;1.52;;;2.80;99.90;;;;;;5010755;28;20094;-80
2023/04/02 06:18:05;;;;;;;7.28;1.30;;;3.10;99.90;;;;;;5027107;28;20516;-80
2023/04/02 06:20:31;;;;;;;9.10;1.90;;;2.80;99.90;;;;;;5035362;28;20075;-80
2023/04/02 06:23:38;;;;;;;7.50;1.50;;;2.80;99.90;;;;;;5013437;28;20569;-80
2023/04/02 06:26:13;;;;;;;10.63;1.83;;;2.80;99.90;;;;;;5017076;28;20069;-81
2023/04/02 06:28:46;;;;;;;10.10;1.50;;;2.80;99.90;;;;;;5031139;28;20111;-81
2023/04/02 06:31:46;;;;;;;9.13;1.73;;;2.80;99.90;;;;;;5031698;28;20048;-79
2023/04/02 06:34:31;;;;;;;11.20;1.90;;;2.80;99.90;;;;;;5022481;28;20037;-79
2023/04/02 06:37:03;;;;;;;8.27;1.35;;;2.70;99.90;;;;;;5042416;28;20044;-81
2023/04/02 06:39:30;;;;;;;8.23;1.77;;;2.70;99.90;;;;;;5019837;28;20045;-80
2023/04/02 06:42:04;;;;;;;7.18;1.40;;;3.60;99.90;;;;;;5024711;28;20053;-80
2023/04/02 06:44:35;;;;;;;4.70;1.10;;;2.70;99.90;;;;;;5038950;28;20132;-81
2023/04/02 06:47:08;;;;;;;4.72;1.27;;;2.70;99.90;;;;;;5030267;28;20112;-81
2023/04/02 06:49:57;;;;;;;11.40;2.05;;;2.60;99.90;;;;;;5021829;28;20118;-81
2023/04/02 06:52:34;;;;;;;5.13;1.27;;;2.70;99.90;;;;;;5030661;28;20097;-80
2023/04/02 06:55:24;;;;;;;4.55;1.13;;;2.10;99.90;;;;;;5020662;28;20707;-80
2023/04/02 06:57:50;;;;;;;6.38;1.30;;;3.00;99.90;;;;;;4979325;28;20064;-81
2023/04/02 07:00:33;;;;;;;9.93;1.30;;;2.80;99.90;;;;;;5005027;28;20041;-81
2023/04/02 07:03:02;;;;;;;8.45;1.80;;;2.80;99.90;;;;;;5030926;28;20128;-81
2023/04/02 07:05:27;;;;;;;8.07;1.65;;;2.90;99.90;;;;;;5024084;28;20045;-81
2023/04/02 07:07:53;;;;;;;4.63;1.20;;;3.40;99.90;;;;;;5047388;28;20050;-81
2023/04/02 07:10:19;;;;;;;9.57;1.63;;;3.20;99.90;;;;;;5040091;28;20509;-81
2023/04/02 07:12:46;;;;;;;6.07;1.40;;;3.30;99.90;;;;;;5022048;28;20127;-81
2023/04/02 07:15:17;;;;;;;8.25;1.65;;;3.50;99.90;;;;;;5023847;28;20041;-81
2023/04/02 07:17:44;;;;;;;5.93;1.60;;;3.60;99.90;;;;;;5025240;28;20088;-81
2023/04/02 07:20:27;;;;;;;10.32;1.48;;;3.80;99.90;;;;;;5046750;28;20555;-80
2023/04/02 07:22:54;;;;;;;4.88;1.30;;;3.80;99.90;;;;;;5025517;28;20048;-81
2023/04/02 07:25:19;;;;;;;10.18;1.50;;;3.80;99.90;;;;;;5023965;28;20065;-80
2023/04/02 07:27:46;;;;;;;10.10;1.70;;;3.90;99.90;;;;;;5021979;28;20075;-80
2023/04/02 07:30:12;;;;;;;8.82;1.50;;;4.40;99.90;;;;;;5010870;28;20052;-76
2023/04/02 07:32:38;;;;;;;8.15;1.50;;;3.80;99.90;;;;;;5035997;28;20387;-75
2023/04/02 07:35:04;;;;;;;6.03;1.90;;;3.90;99.90;;;;;;5012887;28;20114;-76
2023/04/02 07:37:31;;;;;;;5.63;1.60;;;3.80;99.90;;;;;;5005831;28;20438;-75
2023/04/02 07:39:56;;;;;;;7.03;1.40;;;3.80;99.90;;;;;;5025116;28;20422;-80
2023/04/02 07:42:22;;;;;;;6.80;1.20;;;3.80;99.90;;;;;;5026318;28;20061;-80
2023/04/02 07:44:51;;;;;;;6.90;1.50;;;4.00;99.90;;;;;;5011386;28;20277;-80
2023/04/02 07:47:17;;;;;;;6.63;1.20;;;4.50;99.90;;;;;;5029656;28;20045;-81
2023/04/02 07:49:43;;;;;;;8.93;2.25;;;4.10;99.90;;;;;;5043377;28;20113;-81
2023/04/02 07:52:10;;;;;;;5.90;1.27;;;4.00;99.90;;;;;;5025093;28;20049;-80
2023/04/02 07:54:37;;;;;;;8.00;1.60;;;4.00;99.90;;;;;;5040873;28;20049;-80
2023/04/02 07:57:02;;;;;;;7.40;1.85;;;3.90;99.90;;;;;;5043888;28;20049;-80
2023/04/02 07:59:28;;;;;;;9.10;1.35;;;3.90;99.90;;;;;;5046148;28;20044;-79
2023/04/02 08:01:54;;;;;;;5.47;1.55;;;4.20;99.90;;;;;;5028342;28;20094;-80
2023/04/02 08:04:21;;;;;;;9.57;1.45;;;3.90;99.90;;;;;;5028421;28;20660;-80
2023/04/02 08:06:47;;;;;;;6.20;1.38;;;4.10;99.90;;;;;;5009145;28;20653;-79
2023/04/02 08:09:14;;;;;;;4.55;1.30;;;4.10;99.90;;;;;;5024940;28;20747;-80
2023/04/02 08:11:41;;;;;;;5.50;1.20;;;4.20;99.90;;;;;;5028129;28;20057;-80
2023/04/02 08:14:07;;;;;;;8.10;1.42;;;4.20;99.90;;;;;;5045026;28;20069;-80
2023/04/02 08:16:49;;;;;;;5.38;1.20;;;4.10;99.90;;;;;;5038306;28;20045;-79
2023/04/02 08:19:15;;;;;;;5.07;1.02;;;4.10;99.90;;;;;;5026524;28;20567;-79
2023/04/02 08:21:41;;;;;;;7.38;1.65;;;4.10;99.90;;;;;;5014705;28;20047;-80
2023/04/02 08:24:07;;;;;;;6.35;1.20;;;4.50;99.90;;;;;;5047234;28;21124;-80
2023/04/02 08:26:33;;;;;;;7.35;1.52;;;4.10;99.90;;;;;;5029280;28;20110;-80
2023/04/02 08:28:58;;;;;;;4.07;1.13;;;4.20;99.90;;;;;;5014576;28;20076;-81
2023/04/02 08:31:27;;;;;;;6.57;1.50;;;4.10;99.90;;;;;;5026675;28;20132;-81
2023/04/02 08:33:55;;;;;;;8.57;1.58;;;4.20;99.90;;;;;;5029883;28;20044;-81
2023/04/02 08:36:27;;;;;;;15.20;1.83;;;4.30;99.90;;;;;;5022581;28;20049;-80
2023/04/02 08:38:53;;;;;;;6.97;1.55;;;4.50;99.90;;;;;;5012946;28;20106;-80
2023/04/02 08:41:26;;;;;;;7.25;1.52;;;4.60;99.90;;;;;;5012999;28;20048;-80
2023/04/02 08:44:17;;;;;;;7.38;1.50;;;5.20;99.90;;;;;;5022819;28;20071;-80
2023/04/02 08:47:01;;;;;;;3.47;1.08;;;4.90;99.90;;;;;;5033309;28;20045;-80
2023/04/02 08:49:38;;;;;;;6.78;1.42;;;5.10;99.90;;;;;;5032521;28;20045;-81
2023/04/02 08:52:04;;;;;;;4.65;1.20;;;5.20;99.90;;;;;;5032964;28;20056;-79
2023/04/02 08:54:36;;;;;;;12.68;2.85;;;5.50;99.90;;;;;;5015321;28;20057;-80
2023/04/02 08:57:11;;;;;;;8.85;1.50;;;5.30;99.90;;;;;;5013762;28;20139;-80
2023/04/02 08:59:42;;;;;;;8.07;1.25;;;5.30;99.90;;;;;;5013760;28;20502;-80
2023/04/02 09:02:32;;;;;;;4.80;1.00;;;5.30;99.90;;;;;;5016766;28;20576;-80
2023/04/02 09:05:02;;;;;;;5.10;1.15;;;5.40;99.90;;;;;;5016731;28;20072;-80
2023/04/02 09:07:28;;;;;;;5.13;1.38;;;5.90;99.90;;;;;;5018484;28;20076;-80
2023/04/02 09:09:54;;;;;;;7.32;1.25;;;5.50;99.90;;;;;;5015568;28;20081;-80
2023/04/02 09:12:25;;;;;;;6.50;1.20;;;5.60;99.90;;;;;;5015383;28;20160;-80
2023/04/02 09:15:07;;;;;;;7.95;1.30;;;5.60;99.90;;;;;;5014074;28;20060;-81
2023/04/02 09:17:33;;;;;;;5.78;0.90;;;5.70;99.90;;;;;;4992363;28;20526;-80
2023/04/02 09:20:25;;;;;;;6.45;1.23;;;5.80;99.90;;;;;;4997766;28;20164;-80
2023/04/02 09:22:53;;;;;;;5.47;1.00;;;5.90;99.90;;;;;;5033992;28;20052;-81
2023/04/02 09:25:31;;;;;;;4.75;1.05;;;5.90;99.90;;;;;;5031879;28;20049;-80
2023/04/02 09:28:02;;;;;;;7.78;1.33;;;6.00;99.90;;;;;;5029585;28;20042;-81
2023/04/02 09:30:30;;;;;;;5.85;1.27;;;6.10;99.90;;;;;;5002802;28;20490;-79
2023/04/02 09:33:01;;;;;;;6.45;1.15;;;6.10;99.90;;;;;;5013709;28;20049;-80
2023/04/02 09:35:31;;;;;;;5.35;1.15;;;6.10;99.90;;;;;;5010488;28;20659;-81
2023/04/02 09:38:09;;;;;;;7.47;1.40;;;6.10;99.90;;;;;;5013523;28;20045;-80
2023/04/02 09:40:52;;;;;;;8.18;1.20;;;6.10;99.90;;;;;;5028391;28;20083;-81
2023/04/02 09:43:24;;;;;;;6.70;1.17;;;6.10;99.90;;;;;;5017917;28;20139;-81
2023/04/02 09:46:11;;;;;;;6.45;1.35;;;6.20;99.90;;;;;;5016079;28;20041;-80
2023/04/02 09:48:43;;;;;;;5.43;1.50;;;6.20;99.90;;;;;;5010652;28;20086;-81
2023/04/02 09:51:13;;;;;;;5.22;1.00;;;6.60;99.90;;;;;;5026259;28;20056;-80
2023/04/02 09:53:48;;;;;;;5.82;1.58;;;6.20;99.90;;;;;;5012169;28;20527;-82
2023/04/02 09:56:23;;;;;;;5.53;1.10;;;6.30;99.90;;;;;;5020988;28;20542;-81
2023/04/02 09:59:16;;;;;;;6.28;1.75;;;6.30;99.90;;;;;;5010157;28;20049;-82
2023/04/02 10:01:54;;;;;;;5.50;0.93;;;6.40;99.90;;;;;;5029398;28;20050;-80
2023/04/02 10:04:48;;;;;;;5.05;1.30;;;6.40;99.90;;;;;;5036983;28;20045;-79
2023/04/02 10:07:38;;;;;;;4.57;1.13;;;6.40;99.90;;;;;;5029901;28;20052;-82
2023/04/02 10:10:28;;;;;;;6.40;1.70;;;6.50;99.90;;;;;;5013712;28;20050;-80
2023/04/02 10:13:03;;;;;;;4.82;0.90;;;6.50;99.90;;;;;;5027994;28;20610;-81
2023/04/02 10:15:38;;;;;;;5.18;1.10;;;6.50;99.90;;;;;;5018697;28;20060;-79
2023/04/02 10:18:20;;;;;;;6.50;1.30;;;6.60;99.90;;;;;;5017435;28;20045;-80
2023/04/02 10:20:46;;;;;;;;;;;6.70;99.90;;;;;;5017706;28;20108;-82
2023/04/02 10:23:16;;;;;;;4.68;0.95;;;6.70;99.90;;;;;;5014857;28;19932;-81
2023/04/02 10:25:54;;;;;;;3.67;1.00;;;6.70;99.90;;;;;;5033238;28;20036;-81
2023/04/02 10:28:39;;;;;;;6.00;1.42;;;6.80;99.90;;;;;;5013473;28;20055;-81
2023/04/02 10:31:24;;;;;;;4.13;0.90;;;6.80;99.90;;;;;;5030385;28;20165;-82
2023/04/02 10:34:01;;;;;;;3.03;0.80;;;6.80;99.90;;;;;;5009046;28;20048;-79
2023/04/02 10:36:49;;;;;;;5.78;1.20;;;6.80;99.90;;;;;;5002075;28;20087;-81
2023/04/02 10:39:18;;;;;;;5.45;1.10;;;6.90;99.90;;;;;;5020748;28;20183;-80
2023/04/02 10:41:44;;;;;;;4.65;0.98;;;6.90;99.90;;;;;;5031641;28;20045;-80
2023/04/02 10:44:19;;;;;;;5.00;1.00;;;7.00;99.90;;;;;;5013116;28;20674;-81
2023/04/02 10:46:49;;;;;;;3.28;0.90;;;7.10;99.90;;;;;;4991633;28;20056;-80
2023/04/02 10:49:18;;;;;;;3.15;0.80;;;7.10;99.90;;;;;;5003636;28;20041;-81
2023/04/02 10:51:56;;;;;;;3.90;1.13;;;7.10;99.90;;;;;;5007942;28;20112;-80
2023/04/02 10:54:22;;;;;;;5.80;0.98;;;7.10;99.90;;;;;;5028289;28;20382;-81
2023/04/02 10:56:51;;;;;;;5.07;0.88;;;7.20;99.90;;;;;;5017681;28;20045;-79
2023/04/02 10:59:23;;;;;;;4.03;1.00;;;7.20;99.90;;;;;;5008312;28;20571;-82
2023/04/02 11:01:49;;;;;;;;;;;7.30;99.90;;;;;;5027805;28;20056;-80
2023/04/02 11:04:31;;;;;;;5.22;0.90;;;7.30;99.90;;;;;;5015470;28;20436;-81
2023/04/02 11:07:06;;;;;;;5.15;0.80;;;7.30;99.90;;;;;;5020268;28;20118;-78
2023/04/02 11:09:40;;;;;;;4.60;0.80;;;7.30;99.90;;;;;;5000230;28;20127;-73
2023/04/02 11:12:07;;;;;;;5.00;0.80;;;7.40;99.90;;;;;;5029584;28;20052;-73
2023/04/02 11:14:33;;;;;;;3.25;0.80;;;7.40;99.90;;;;;;5016711;28;20678;-73
2023/04/02 11:17:01;;;;;;;12.93;1.02;;;7.50;99.90;;;;;;5030065;28;20048;-75
2023/04/02 11:19:34;;;;;;;6.20;1.23;;;7.50;99.90;;;;;;5034423;28;20621;-74
2023/04/02 11:22:02;;;;;;;4.10;0.80;;;7.60;99.90;;;;;;5016510;28;20072;-74
2023/04/02 11:24:35;;;;;;;5.10;0.82;;;7.60;99.90;;;;;;5031229;28;20044;-76
2023/04/02 11:27:10;;;;;;;4.25;0.82;;;7.60;99.90;;;;;;5024513;28;20052;-74
2023/04/02 11:29:47;;;;;;;3.47;0.88;;;7.60;99.90;;;;;;5016735;28;20044;-72
2023/04/02 11:32:19;;;;;;;1.75;0.57;;;7.80;99.90;;;;;;5018278;28;20140;-75
2023/04/02 11:34:48;;;;;;;4.20;0.80;;;7.70;99.90;;;;;;5013714;28;20045;-73
2023/04/02 11:37:43;;;;;;;4.53;1.08;;;7.80;99.90;;;;;;5023617;28;20130;-72
2023/04/02 11:40:15;;;;;;;6.40;1.00;;;7.80;99.90;;;;;;5005458;28;20056;-74
2023/04/02 11:42:42;;;;;;;4.38;0.82;;;7.80;99.90;;;;;;5025880;28;20072;-72
2023/04/02 11:45:24;;;;;;;7.35;1.17;;;7.90;99.90;;;;;;4997761;28;20041;-74
2023/04/02 11:48:06;;;;;;;4.28;0.80;;;8.00;99.90;;;;;;5018740;28;20052;-73
2023/04/02 11:50:44;;;;;;;3.92;0.88;;;8.10;99.90;;;;;;4997357;28;20053;-74
2023/04/02 11:53:10;;;;;;;2.78;0.63;;;8.40;99.90;;;;;;5033730;28;20118;-74
2023/04/02 11:55:38;;;;;;;2.92;0.82;;;8.20;99.90;;;;;;5018691;28;20056;-74
2023/04/02 11:58:04;;;;;;;3.42;0.82;;;8.40;99.90;;;;;;5040615;28;20072;-74
2023/04/02 12:00:48;;;;;;;4.63;0.90;;;8.20;99.90;;;;;;5025887;28;20484;-74
2023/04/02 12:03:32;;;;;;;3.92;1.00;;;8.20;99.90;;;;;;5027941;28;20732;-74
2023/04/02 12:06:12;;;;;;;2.40;0.68;;;8.30;99.90;;;;;;5027680;28;20095;-74
2023/04/02 12:08:45;;;;;;;5.22;1.10;;;8.30;99.90;;;;;;5040498;28;20116;-73
2023/04/02 12:11:13;;;;;;;8.20;0.90;;;8.30;99.90;;;;;;5026462;28;20087;-73
2023/04/02 12:13:38;;;;;;;3.65;0.77;;;8.40;99.90;;;;;;5039385;28;20136;-76
2023/04/02 12:16:07;;;;;;;5.57;0.63;;;8.40;99.90;;;;;;5025814;28;20131;-75
2023/04/02 12:18:34;;;;;;;7.65;0.90;;;8.40;99.90;;;;;;5035965;28;20063;-76
2023/04/02 12:21:00;;;;;;;1.70;0.70;;;8.60;99.90;;;;;;5013317;28;20148;-76
2023/04/02 12:23:30;;;;;;;3.97;0.90;;;8.70;99.90;;;;;;5021710;28;20082;-76
2023/04/02 12:26:28;;;;;;;2.90;0.82;;;8.30;99.90;;;;;;5020411;28;20052;-76
2023/04/02 12:29:13;;;;;;;4.13;0.65;;;8.40;99.90;;;;;;5020128;28;20266;-72
2023/04/02 12:31:43;;;;;;;23.85;1.70;;;8.50;99.90;;;;;;5010494;28;20060;-71
2023/04/02 12:34:15;;;;;;;3.23;0.80;;;8.50;99.90;;;;;;5011053;28;20045;-71
2023/04/02 12:37:03;;;;;;;3.65;0.70;;;8.50;99.90;;;;;;5010802;28;20098;-71
2023/04/02 12:39:33;;;;;;;4.35;0.82;;;8.60;99.90;;;;;;5010111;28;20548;-71
2023/04/02 12:42:00;;;;;;;2.20;0.88;;;8.60;99.90;;;;;;5015458;28;20051;-72
2023/04/02 12:44:29;;;;;;;2.40;0.63;;;8.60;99.90;;;;;;5005368;28;20033;-71
2023/04/02 12:46:57;;;;;;;4.10;0.90;;;8.70;99.90;;;;;;5023458;28;20071;-71
2023/04/02 12:49:41;;;;;;;4.75;0.90;;;8.70;99.90;;;;;;5024459;28;20041;-72
2023/04/02 12:52:13;;;;;;;2.50;0.80;;;8.70;99.90;;;;;;5013948;28;20038;-69
2023/04/02 12:54:59;;;;;;;2.20;0.68;;;8.70;99.90;;;;;;5011156;28;20660;-70
2023/04/02 12:57:25;;;;;;;3.08;0.80;;;8.70;99.90;;;;;;4996877;28;20080;-71
2023/04/02 12:59:55;;;;;;;3.83;1.10;;;8.80;99.90;;;;;;5009581;28;20179;-70
2023/04/02 13:02:23;;;;;;;6.22;1.08;;;8.80;99.90;;;;;;5024894;28;20049;-72
2023/04/02 13:04:53;;;;;;;5.57;0.85;;;8.70;99.90;;;;;;5007903;28;20088;-70
2023/04/02 13:07:22;;;;;;;4.97;0.90;;;8.60;99.90;;;;;;5009984;28;20123;-70
2023/04/02 13:09:53;;;;;;;5.45;1.13;;;8.60;99.90;;;;;;5021180;28;20049;-73
2023/04/02 13:12:26;;;;;;;3.00;0.70;;;8.60;99.90;;;;;;5020279;28;20045;-71
2023/04/02 13:14:57;;;;;;;4.75;1.10;;;8.50;99.90;;;;;;5021946;28;20037;-71
2023/04/02 13:17:48;;;;;;;3.75;0.80;;;8.60;99.90;;;;;;5013203;28;20163;-70
2023/04/02 13:20:36;;;;;;;2.65;0.80;;;8.60;99.90;;;;;;4991846;28;20123;-70
2023/04/02 13:23:24;;;;;;;4.28;0.90;;;8.60;99.90;;;;;;5025165;28;20052;-71
2023/04/02 13:25:50;;;;;;;4.35;0.80;;;8.60;99.90;;;;;;5019932;28;20091;-74
2023/04/02 13:28:16;;;;;;;2.72;0.80;;;8.70;99.90;;;;;;5024679;28;20048;-72
2023/04/02 13:30:42;;;;;;;3.67;0.80;;;8.60;99.90;;;;;;5014047;28;20116;-71
2023/04/02 13:33:07;;;;;;;5.28;0.90;;;8.60;99.90;;;;;;5020464;28;20684;-71
2023/04/02 13:35:34;;;;;;;3.75;0.75;;;8.60;99.90;;;;;;5013073;28;20057;-72
2023/04/02 13:38:01;;;;;;;3.95;0.70;;;9.00;99.90;;;;;;5010656;28;20093;-71